Terminal Aerodrome Forecast
Issued by NWS

Home | Current Version | Previous Version | Text Only | Print | Product List | Glossary On
Versions: 1 2 3 4 5 6 7 8 9 10 11 12 13 14 15
000
FTUS46 KMTR 222326
TAFSJC
TAF
KSJC 222326Z 2300/2324 30014G21KT P6SM FEW040 SCT050 BKN150
     FM230600 30009KT P6SM FEW040 FEW060 SCT150
     FM230800 30005KT P6SM FEW150
     FM231000 VRB03KT P6SM FEW200
     FM231800 30008KT P6SM SKC
     FM232300 30011G18KT P6SM SKC=

USA.gov is the U.S. government's official web portal to all federal, state and local government web resources and services.